Iowa Falls, IA

2:33 AM CST on November 28, 2014 (GMT -0600)
Clarion Municipal | Change Station
CLOSE
Current Station
Airport
Location: Clarion,
Elevation: 1161 ft
Nearby Weather Stations

Elev 1161 ft 42.74 °N, 93.76 °W | Updated 18 minutes ago

Overcast
Overcast
14 °F
Feels Like -4 °F
N
21
Wind Variable Wind from SE

Today
High -- | Low -- °F
--% Chance of Precip.
Yesterday
High -- | Low -- °F
Precip. -- in
7:19 AM 4:42 PM
Waxing Crescent, 38% visible
Pressure 30.10 in
Visibility 10.0 miles
Clouds Scattered Clouds 10000 ft
Windchill -4 °F
Dew Point 5 °F
Humidity 67%
Rainfall 0.00 in
Snow Depth Not available.
UV 0 out of 12
Pollen .10 out of 12
Air Quality Not available.
Flu Activity Not available.
METAR KCAV 280815Z AUTO 14018KT 10SM SCT100 M10/M15 A3010 RMK AO2

More Conditions Fewer Conditions

Pressure 30.10 in
Visibility 10.0 miles
Clouds Scattered Clouds 10000 ft
Windchill -4 °F
Dew Point 5 °F
Humidity 67%
Rainfall 0.00 in
Snow Depth Not available.
UV 0 out of 12
Pollen .10 out of 12
Air Quality Not available.
Flu Activity Not available.
METAR KCAV 280815Z AUTO 14018KT 10SM SCT100 M10/M15 A3010 RMK AO2

More Conditions Fewer Conditions

10-Day Weather Forecast

Almanac

Astronomy

Nov. 28, 2014 Rise Set
Actual Time
Civil Twilight
Nautical Twilight
Astronomical Twilight
Moon
Length of Visible Light
Length of Day
Tomorrow will be .
, % of the Moon is Illuminated

Today's Extremes

State Highs State Lows

Community

WunderPhotos

Upload Photos

1,774,191 photos uploaded!

WunderBlogs® & News

Nearby

Air Quality

  Air Quality AQ Index Pollutant
Not available.

Snow Depth

Station Depth Elevation

Earthquake Activity

City Distance Mag. Time & Date
Minimum magnitude displayed is 2.5.

Coastal Water Temperatures

Place Temperature

Nearby Weather Stations